sensor_id;sensor_type;location;lat;lon;timestamp;temperature;humidity
33715;DHT22;20043;50.998;4.754;2023-03-01T00:01:39;1.10;99.90
33715;DHT22;20043;50.998;4.754;2023-03-01T00:04:05;1.00;99.90
33715;DHT22;20043;50.998;4.754;2023-03-01T00:06:31;0.90;99.90
33715;DHT22;20043;50.998;4.754;2023-03-01T00:08:56;0.80;99.90
33715;DHT22;20043;50.998;4.754;2023-03-01T00:11:27;0.90;99.90
33715;DHT22;20043;50.998;4.754;2023-03-01T00:13:56;1.00;99.90
33715;DHT22;20043;50.998;4.754;2023-03-01T00:16:31;1.00;99.90
33715;DHT22;20043;50.998;4.754;2023-03-01T00:18:58;1.00;99.90
33715;DHT22;20043;50.998;4.754;2023-03-01T00:21:25;1.00;99.90
33715;DHT22;20043;50.998;4.754;2023-03-01T00:23:51;1.10;99.90
33715;DHT22;20043;50.998;4.754;2023-03-01T00:26:19;1.20;99.90
33715;DHT22;20043;50.998;4.754;2023-03-01T00:28:45;1.20;99.90
33715;DHT22;20043;50.998;4.754;2023-03-01T00:31:14;1.10;99.90
33715;DHT22;20043;50.998;4.754;2023-03-01T00:33:40;0.90;99.90
33715;DHT22;20043;50.998;4.754;2023-03-01T00:36:06;0.80;99.90
33715;DHT22;20043;50.998;4.754;2023-03-01T00:38:39;0.50;99.90
33715;DHT22;20043;50.998;4.754;2023-03-01T00:41:07;0.30;99.90
33715;DHT22;20043;50.998;4.754;2023-03-01T00:43:33;0.20;99.90
33715;DHT22;20043;50.998;4.754;2023-03-01T00:46:13;0.20;99.90
33715;DHT22;20043;50.998;4.754;2023-03-01T00:48:39;0.30;99.90
33715;DHT22;20043;50.998;4.754;2023-03-01T00:51:16;0.40;99.90
33715;DHT22;20043;50.998;4.754;2023-03-01T00:53:43;0.30;99.90
33715;DHT22;20043;50.998;4.754;2023-03-01T00:56:11;0.30;99.90
33715;DHT22;20043;50.998;4.754;2023-03-01T00:58:37;0.30;99.90
33715;DHT22;20043;50.998;4.754;2023-03-01T01:01:15;0.20;99.90
33715;DHT22;20043;50.998;4.754;2023-03-01T01:03:52;0.20;99.90
33715;DHT22;20043;50.998;4.754;2023-03-01T01:06:33;0.20;99.90
33715;DHT22;20043;50.998;4.754;2023-03-01T01:09:00;0.20;99.90
33715;DHT22;20043;50.998;4.754;2023-03-01T01:11:28;0.30;99.90
33715;DHT22;20043;50.998;4.754;2023-03-01T01:13:54;0.40;99.90
33715;DHT22;20043;50.998;4.754;2023-03-01T01:16:23;0.30;99.90
33715;DHT22;20043;50.998;4.754;2023-03-01T01:18:49;0.40;99.90
33715;DHT22;20043;50.998;4.754;2023-03-01T01:21:18;0.70;99.90
33715;DHT22;20043;50.998;4.754;2023-03-01T01:23:44;0.60;99.90
33715;DHT22;20043;50.998;4.754;2023-03-01T01:26:13;0.40;99.90
33715;DHT22;20043;50.998;4.754;2023-03-01T01:28:39;0.40;99.90
33715;DHT22;20043;50.998;4.754;2023-03-01T01:31:06;0.40;99.90
33715;DHT22;20043;50.998;4.754;2023-03-01T01:33:32;0.60;99.90
33715;DHT22;20043;50.998;4.754;2023-03-01T01:35:58;0.70;99.90
33715;DHT22;20043;50.998;4.754;2023-03-01T01:38:23;0.80;99.90
33715;DHT22;20043;50.998;4.754;2023-03-01T01:40:50;0.80;99.90
33715;DHT22;20043;50.998;4.754;2023-03-01T01:43:24;0.90;99.90
33715;DHT22;20043;50.998;4.754;2023-03-01T01:45:50;0.90;99.90
33715;DHT22;20043;50.998;4.754;2023-03-01T01:48:22;0.80;99.90
33715;DHT22;20043;50.998;4.754;2023-03-01T01:50:54;0.70;99.90
33715;DHT22;20043;50.998;4.754;2023-03-01T01:53:21;0.80;99.90
33715;DHT22;20043;50.998;4.754;2023-03-01T01:55:55;0.80;99.90
33715;DHT22;20043;50.998;4.754;2023-03-01T01:58:25;0.80;99.90
33715;DHT22;20043;50.998;4.754;2023-03-01T02:00:53;0.90;99.90
33715;DHT22;20043;50.998;4.754;2023-03-01T02:03:32;1.00;99.90
33715;DHT22;20043;50.998;4.754;2023-03-01T02:08:30;0.70;99.90
33715;DHT22;20043;50.998;4.754;2023-03-01T02:10:58;0.60;99.90
33715;DHT22;20043;50.998;4.754;2023-03-01T02:13:26;0.70;99.90
33715;DHT22;20043;50.998;4.754;2023-03-01T02:15:51;0.70;99.90
33715;DHT22;20043;50.998;4.754;2023-03-01T02:18:18;0.70;99.90
33715;DHT22;20043;50.998;4.754;2023-03-01T02:23:20;0.50;99.90
33715;DHT22;20043;50.998;4.754;2023-03-01T02:28:38;0.30;99.90
33715;DHT22;20043;50.998;4.754;2023-03-01T02:31:07;0.10;99.90
33715;DHT22;20043;50.998;4.754;2023-03-01T02:33:52;0.10;99.90
33715;DHT22;20043;50.998;4.754;2023-03-01T02:36:31;0.30;99.90
33715;DHT22;20043;50.998;4.754;2023-03-01T02:39:02;0.30;99.90
33715;DHT22;20043;50.998;4.754;2023-03-01T02:41:31;0.00;99.90
33715;DHT22;20043;50.998;4.754;2023-03-01T02:43:58;-0.10;99.90
33715;DHT22;20043;50.998;4.754;2023-03-01T02:46:25;0.00;99.90
33715;DHT22;20043;50.998;4.754;2023-03-01T02:48:53;0.10;99.90
33715;DHT22;20043;50.998;4.754;2023-03-01T02:56:29;-0.30;99.90
33715;DHT22;20043;50.998;4.754;2023-03-01T02:58:55;-0.30;99.90
33715;DHT22;20043;50.998;4.754;2023-03-01T03:01:26;-0.30;99.90
33715;DHT22;20043;50.998;4.754;2023-03-01T03:04:09;-0.20;99.90
33715;DHT22;20043;50.998;4.754;2023-03-01T03:06:36;-0.20;99.90
33715;DHT22;20043;50.998;4.754;2023-03-01T03:09:02;-0.20;99.90
33715;DHT22;20043;50.998;4.754;2023-03-01T03:11:28;-0.10;99.90
33715;DHT22;20043;50.998;4.754;2023-03-01T03:13:54;0.00;99.90
33715;DHT22;20043;50.998;4.754;2023-03-01T03:16:21;0.00;99.90
33715;DHT22;20043;50.998;4.754;2023-03-01T03:18:47;0.10;99.90
33715;DHT22;20043;50.998;4.754;2023-03-01T03:21:13;0.10;99.90
33715;DHT22;20043;50.998;4.754;2023-03-01T03:23:39;0.10;99.90
33715;DHT22;20043;50.998;4.754;2023-03-01T03:26:05;0.10;99.90
33715;DHT22;20043;50.998;4.754;2023-03-01T03:28:32;0.10;99.90
33715;DHT22;20043;50.998;4.754;2023-03-01T03:30:58;0.10;99.90
33715;DHT22;20043;50.998;4.754;2023-03-01T03:33:29;0.00;99.90
33715;DHT22;20043;50.998;4.754;2023-03-01T03:35:55;-0.10;99.90
33715;DHT22;20043;50.998;4.754;2023-03-01T03:38:20;-0.10;99.90
33715;DHT22;20043;50.998;4.754;2023-03-01T03:40:49;-0.10;99.90
33715;DHT22;20043;50.998;4.754;2023-03-01T03:43:20;-0.10;99.90
33715;DHT22;20043;50.998;4.754;2023-03-01T03:45:50;-0.10;99.90
33715;DHT22;20043;50.998;4.754;2023-03-01T03:48:16;-0.30;99.90
33715;DHT22;20043;50.998;4.754;2023-03-01T03:50:48;-0.30;99.90
33715;DHT22;20043;50.998;4.754;2023-03-01T03:53:14;-0.30;99.90
33715;DHT22;20043;50.998;4.754;2023-03-01T03:55:40;-0.30;99.90
33715;DHT22;20043;50.998;4.754;2023-03-01T03:58:10;-0.30;99.90
33715;DHT22;20043;50.998;4.754;2023-03-01T04:00:38;-0.30;99.90
33715;DHT22;20043;50.998;4.754;2023-03-01T04:03:04;-0.30;99.90
33715;DHT22;20043;50.998;4.754;2023-03-01T04:05:30;-0.30;99.90
33715;DHT22;20043;50.998;4.754;2023-03-01T04:07:56;-0.20;99.90
33715;DHT22;20043;50.998;4.754;2023-03-01T04:10:33;-0.20;99.90
33715;DHT22;20043;50.998;4.754;2023-03-01T04:12:59;-0.20;99.90
33715;DHT22;20043;50.998;4.754;2023-03-01T04:15:26;-0.20;99.90
33715;DHT22;20043;50.998;4.754;2023-03-01T04:17:53;-0.30;99.90
33715;DHT22;20043;50.998;4.754;2023-03-01T04:20:21;-0.30;99.90
33715;DHT22;20043;50.998;4.754;2023-03-01T04:23:01;-0.30;99.90
33715;DHT22;20043;50.998;4.754;2023-03-01T04:25:40;-0.40;99.90
33715;DHT22;20043;50.998;4.754;2023-03-01T04:28:06;-0.50;99.90
33715;DHT22;20043;50.998;4.754;2023-03-01T04:30:32;-0.40;99.90
33715;DHT22;20043;50.998;4.754;2023-03-01T04:33:02;-0.50;99.90
33715;DHT22;20043;50.998;4.754;2023-03-01T04:35:29;-0.50;99.90
33715;DHT22;20043;50.998;4.754;2023-03-01T04:37:55;-0.50;99.90
33715;DHT22;20043;50.998;4.754;2023-03-01T04:40:20;-0.40;99.90
33715;DHT22;20043;50.998;4.754;2023-03-01T04:42:46;-0.40;99.90
33715;DHT22;20043;50.998;4.754;2023-03-01T04:45:12;-0.30;99.90
33715;DHT22;20043;50.998;4.754;2023-03-01T04:47:42;-0.30;99.90
33715;DHT22;20043;50.998;4.754;2023-03-01T04:50:10;-0.30;99.90
33715;DHT22;20043;50.998;4.754;2023-03-01T04:52:36;-0.40;99.90
33715;DHT22;20043;50.998;4.754;2023-03-01T04:55:02;-0.40;99.90
33715;DHT22;20043;50.998;4.754;2023-03-01T04:57:29;-0.50;99.90
33715;DHT22;20043;50.998;4.754;2023-03-01T04:59:54;-0.60;99.90
33715;DHT22;20043;50.998;4.754;2023-03-01T05:02:20;-0.60;99.90
33715;DHT22;20043;50.998;4.754;2023-03-01T05:04:45;-0.70;99.90
33715;DHT22;20043;50.998;4.754;2023-03-01T05:07:11;-0.70;99.90
33715;DHT22;20043;50.998;4.754;2023-03-01T05:09:38;-0.80;99.90
33715;DHT22;20043;50.998;4.754;2023-03-01T05:12:04;-0.80;99.90
33715;DHT22;20043;50.998;4.754;2023-03-01T05:14:30;-0.70;99.90
33715;DHT22;20043;50.998;4.754;2023-03-01T05:16:55;-0.80;99.90
33715;DHT22;20043;50.998;4.754;2023-03-01T05:19:29;-0.80;99.90
33715;DHT22;20043;50.998;4.754;2023-03-01T05:21:57;-0.60;99.90
33715;DHT22;20043;50.998;4.754;2023-03-01T05:24:32;-0.70;99.90
33715;DHT22;20043;50.998;4.754;2023-03-01T05:26:58;-0.70;99.90
33715;DHT22;20043;50.998;4.754;2023-03-01T05:29:25;-0.60;99.90
33715;DHT22;20043;50.998;4.754;2023-03-01T05:31:59;-0.60;99.90
33715;DHT22;20043;50.998;4.754;2023-03-01T05:34:30;-0.50;99.90
33715;DHT22;20043;50.998;4.754;2023-03-01T05:36:56;-0.50;99.90
33715;DHT22;20043;50.998;4.754;2023-03-01T05:39:23;-0.50;99.90
33715;DHT22;20043;50.998;4.754;2023-03-01T05:41:54;-0.60;99.90
33715;DHT22;20043;50.998;4.754;2023-03-01T05:44:21;-0.80;99.90
33715;DHT22;20043;50.998;4.754;2023-03-01T05:46:47;-0.80;99.90
33715;DHT22;20043;50.998;4.754;2023-03-01T05:49:13;-0.90;99.90
33715;DHT22;20043;50.998;4.754;2023-03-01T05:51:42;-0.90;99.90
33715;DHT22;20043;50.998;4.754;2023-03-01T05:54:09;-1.10;99.90
33715;DHT22;20043;50.998;4.754;2023-03-01T05:56:35;-1.00;99.90
33715;DHT22;20043;50.998;4.754;2023-03-01T05:59:02;-1.00;99.90
33715;DHT22;20043;50.998;4.754;2023-03-01T06:01:28;-0.90;99.90
33715;DHT22;20043;50.998;4.754;2023-03-01T06:03:54;-0.70;99.90
33715;DHT22;20043;50.998;4.754;2023-03-01T06:06:21;-0.60;99.90
33715;DHT22;20043;50.998;4.754;2023-03-01T06:08:46;-0.70;99.90
33715;DHT22;20043;50.998;4.754;2023-03-01T06:11:12;-0.90;99.90
33715;DHT22;20043;50.998;4.754;2023-03-01T06:13:38;-0.90;99.90
33715;DHT22;20043;50.998;4.754;2023-03-01T06:16:07;-0.90;99.90
33715;DHT22;20043;50.998;4.754;2023-03-01T06:18:33;-0.80;99.90
33715;DHT22;20043;50.998;4.754;2023-03-01T06:20:58;-0.80;99.90
33715;DHT22;20043;50.998;4.754;2023-03-01T06:23:24;-0.80;99.90
33715;DHT22;20043;50.998;4.754;2023-03-01T06:25:50;-0.70;99.90
33715;DHT22;20043;50.998;4.754;2023-03-01T06:28:16;-0.50;99.90
33715;DHT22;20043;50.998;4.754;2023-03-01T06:30:42;-0.50;99.90
33715;DHT22;20043;50.998;4.754;2023-03-01T06:33:08;-0.40;99.90
33715;DHT22;20043;50.998;4.754;2023-03-01T06:35:33;-0.50;99.90
33715;DHT22;20043;50.998;4.754;2023-03-01T06:38:00;-0.50;99.90
33715;DHT22;20043;50.998;4.754;2023-03-01T06:40:26;-0.50;99.90
33715;DHT22;20043;50.998;4.754;2023-03-01T06:42:52;-0.40;99.90
33715;DHT22;20043;50.998;4.754;2023-03-01T06:45:19;-0.40;99.90
33715;DHT22;20043;50.998;4.754;2023-03-01T06:47:45;-0.50;99.90
33715;DHT22;20043;50.998;4.754;2023-03-01T06:50:11;-0.70;99.90
33715;DHT22;20043;50.998;4.754;2023-03-01T06:52:37;-0.60;99.90
33715;DHT22;20043;50.998;4.754;2023-03-01T06:55:03;-0.50;99.90
33715;DHT22;20043;50.998;4.754;2023-03-01T06:57:29;-0.40;99.90
33715;DHT22;20043;50.998;4.754;2023-03-01T06:59:54;-0.40;99.90
33715;DHT22;20043;50.998;4.754;2023-03-01T07:02:20;-0.40;99.90
33715;DHT22;20043;50.998;4.754;2023-03-01T07:04:45;-0.30;99.90
33715;DHT22;20043;50.998;4.754;2023-03-01T07:07:11;-0.30;99.90
33715;DHT22;20043;50.998;4.754;2023-03-01T07:09:37;-0.20;99.90
33715;DHT22;20043;50.998;4.754;2023-03-01T07:12:02;-0.10;99.90
33715;DHT22;20043;50.998;4.754;2023-03-01T07:14:28;-0.20;99.90
33715;DHT22;20043;50.998;4.754;2023-03-01T07:16:54;-0.10;99.90
33715;DHT22;20043;50.998;4.754;2023-03-01T07:19:21;0.00;99.90
33715;DHT22;20043;50.998;4.754;2023-03-01T07:21:47;0.10;99.90
33715;DHT22;20043;50.998;4.754;2023-03-01T07:24:13;0.20;99.90
33715;DHT22;20043;50.998;4.754;2023-03-01T07:26:38;0.20;99.90
33715;DHT22;20043;50.998;4.754;2023-03-01T07:29:06;0.40;99.90
33715;DHT22;20043;50.998;4.754;2023-03-01T07:31:33;0.40;99.90
33715;DHT22;20043;50.998;4.754;2023-03-01T07:33:58;0.40;99.90
33715;DHT22;20043;50.998;4.754;2023-03-01T07:36:24;0.50;99.90
33715;DHT22;20043;50.998;4.754;2023-03-01T07:38:50;0.40;99.90
33715;DHT22;20043;50.998;4.754;2023-03-01T07:41:16;0.20;99.90
33715;DHT22;20043;50.998;4.754;2023-03-01T07:43:42;0.10;99.90
33715;DHT22;20043;50.998;4.754;2023-03-01T07:46:07;0.10;99.90
33715;DHT22;20043;50.998;4.754;2023-03-01T07:48:33;0.20;99.90
33715;DHT22;20043;50.998;4.754;2023-03-01T07:51:00;0.30;99.90
33715;DHT22;20043;50.998;4.754;2023-03-01T07:53:26;0.40;99.90
33715;DHT22;20043;50.998;4.754;2023-03-01T07:56:01;0.40;99.90
33715;DHT22;20043;50.998;4.754;2023-03-01T07:58:27;0.60;99.90
33715;DHT22;20043;50.998;4.754;2023-03-01T08:00:52;0.70;99.90
33715;DHT22;20043;50.998;4.754;2023-03-01T08:03:18;0.90;99.90
33715;DHT22;20043;50.998;4.754;2023-03-01T08:05:43;0.80;99.90
33715;DHT22;20043;50.998;4.754;2023-03-01T08:08:09;0.80;99.90
33715;DHT22;20043;50.998;4.754;2023-03-01T08:10:36;0.80;99.90
33715;DHT22;20043;50.998;4.754;2023-03-01T08:13:01;0.80;99.90
33715;DHT22;20043;50.998;4.754;2023-03-01T08:15:27;0.80;99.90
33715;DHT22;20043;50.998;4.754;2023-03-01T08:17:53;1.00;99.90
33715;DHT22;20043;50.998;4.754;2023-03-01T08:20:18;1.00;99.90
33715;DHT22;20043;50.998;4.754;2023-03-01T08:22:44;1.20;99.90
33715;DHT22;20043;50.998;4.754;2023-03-01T08:25:09;1.30;99.90
33715;DHT22;20043;50.998;4.754;2023-03-01T08:27:35;1.20;99.90
33715;DHT22;20043;50.998;4.754;2023-03-01T08:30:00;1.20;99.90
33715;DHT22;20043;50.998;4.754;2023-03-01T08:32:26;1.30;99.90
33715;DHT22;20043;50.998;4.754;2023-03-01T08:34:52;1.40;99.90
33715;DHT22;20043;50.998;4.754;2023-03-01T08:37:17;1.50;99.90
33715;DHT22;20043;50.998;4.754;2023-03-01T08:39:43;1.60;99.90
33715;DHT22;20043;50.998;4.754;2023-03-01T08:42:08;1.60;99.90
33715;DHT22;20043;50.998;4.754;2023-03-01T08:44:34;1.60;99.90
33715;DHT22;20043;50.998;4.754;2023-03-01T08:47:00;1.70;99.90
33715;DHT22;20043;50.998;4.754;2023-03-01T08:49:27;1.80;99.90
33715;DHT22;20043;50.998;4.754;2023-03-01T08:51:53;1.80;99.90
33715;DHT22;20043;50.998;4.754;2023-03-01T08:54:21;2.00;99.90
33715;DHT22;20043;50.998;4.754;2023-03-01T08:56:47;2.10;99.90
33715;DHT22;20043;50.998;4.754;2023-03-01T08:59:15;2.00;99.90
33715;DHT22;20043;50.998;4.754;2023-03-01T09:01:41;2.10;99.90
33715;DHT22;20043;50.998;4.754;2023-03-01T09:04:09;2.30;99.90
33715;DHT22;20043;50.998;4.754;2023-03-01T09:06:35;2.30;99.90
33715;DHT22;20043;50.998;4.754;2023-03-01T09:09:03;2.40;99.90
33715;DHT22;20043;50.998;4.754;2023-03-01T09:11:29;2.60;99.90
33715;DHT22;20043;50.998;4.754;2023-03-01T09:13:55;2.80;99.90
33715;DHT22;20043;50.998;4.754;2023-03-01T09:16:21;3.00;99.90
33715;DHT22;20043;50.998;4.754;2023-03-01T09:18:54;3.00;99.90
33715;DHT22;20043;50.998;4.754;2023-03-01T09:21:22;3.00;99.90
33715;DHT22;20043;50.998;4.754;2023-03-01T09:23:48;2.90;99.90
33715;DHT22;20043;50.998;4.754;2023-03-01T09:26:17;2.80;99.90
33715;DHT22;20043;50.998;4.754;2023-03-01T09:28:45;2.90;99.90
33715;DHT22;20043;50.998;4.754;2023-03-01T09:31:11;2.90;99.90
33715;DHT22;20043;50.998;4.754;2023-03-01T09:33:39;3.00;99.90
33715;DHT22;20043;50.998;4.754;2023-03-01T09:36:08;3.20;99.90
33715;DHT22;20043;50.998;4.754;2023-03-01T09:38:35;3.20;99.90
33715;DHT22;20043;50.998;4.754;2023-03-01T09:41:01;3.30;99.90
33715;DHT22;20043;50.998;4.754;2023-03-01T09:43:46;3.30;99.90
33715;DHT22;20043;50.998;4.754;2023-03-01T09:46:14;3.50;99.90
33715;DHT22;20043;50.998;4.754;2023-03-01T09:48:59;3.40;99.90
33715;DHT22;20043;50.998;4.754;2023-03-01T09:51:31;3.60;99.90
33715;DHT22;20043;50.998;4.754;2023-03-01T09:53:57;3.60;99.90
33715;DHT22;20043;50.998;4.754;2023-03-01T09:56:32;3.80;99.90
33715;DHT22;20043;50.998;4.754;2023-03-01T10:01:35;4.10;99.90
33715;DHT22;20043;50.998;4.754;2023-03-01T10:04:32;4.20;99.90
33715;DHT22;20043;50.998;4.754;2023-03-01T10:09:40;4.30;99.90
33715;DHT22;20043;50.998;4.754;2023-03-01T10:12:16;4.10;99.90
33715;DHT22;20043;50.998;4.754;2023-03-01T10:17:50;4.20;99.90
33715;DHT22;20043;50.998;4.754;2023-03-01T10:20:21;4.30;99.90
33715;DHT22;20043;50.998;4.754;2023-03-01T10:22:47;4.40;99.90
33715;DHT22;20043;50.998;4.754;2023-03-01T10:28:01;4.50;99.90
33715;DHT22;20043;50.998;4.754;2023-03-01T10:30:39;4.50;99.90
33715;DHT22;20043;50.998;4.754;2023-03-01T10:33:33;4.70;99.90
33715;DHT22;20043;50.998;4.754;2023-03-01T10:36:01;4.90;99.90
33715;DHT22;20043;50.998;4.754;2023-03-01T10:38:30;4.80;99.90
33715;DHT22;20043;50.998;4.754;2023-03-01T10:43:30;5.00;99.90
33715;DHT22;20043;50.998;4.754;2023-03-01T10:45:57;5.20;99.90
33715;DHT22;20043;50.998;4.754;2023-03-01T10:48:25;5.10;99.90
33715;DHT22;20043;50.998;4.754;2023-03-01T10:53:28;5.20;99.90
33715;DHT22;20043;50.998;4.754;2023-03-01T10:56:14;5.40;99.90
33715;DHT22;20043;50.998;4.754;2023-03-01T10:58:57;5.40;99.90
33715;DHT22;20043;50.998;4.754;2023-03-01T11:06:33;5.50;99.90
33715;DHT22;20043;50.998;4.754;2023-03-01T11:09:14;5.60;99.90
33715;DHT22;20043;50.998;4.754;2023-03-01T11:11:41;5.80;99.90
33715;DHT22;20043;50.998;4.754;2023-03-01T11:14:18;5.80;99.90
33715;DHT22;20043;50.998;4.754;2023-03-01T11:16:45;5.70;99.90
33715;DHT22;20043;50.998;4.754;2023-03-01T11:24:30;5.90;99.90
33715;DHT22;20043;50.998;4.754;2023-03-01T11:27:01;5.90;99.90
33715;DHT22;20043;50.998;4.754;2023-03-01T11:29:35;6.00;99.90
33715;DHT22;20043;50.998;4.754;2023-03-01T11:32:06;6.20;99.90
33715;DHT22;20043;50.998;4.754;2023-03-01T11:34:54;6.40;99.90
33715;DHT22;20043;50.998;4.754;2023-03-01T11:37:38;6.50;99.90
33715;DHT22;20043;50.998;4.754;2023-03-01T11:40:16;6.60;99.90
33715;DHT22;20043;50.998;4.754;2023-03-01T11:43:05;6.80;99.90
33715;DHT22;20043;50.998;4.754;2023-03-01T11:45:47;6.50;99.90
33715;DHT22;20043;50.998;4.754;2023-03-01T11:48:46;6.40;99.90
33715;DHT22;20043;50.998;4.754;2023-03-01T12:00:11;7.00;99.90
33715;DHT22;20043;50.998;4.754;2023-03-01T12:08:42;6.70;99.90
33715;DHT22;20043;50.998;4.754;2023-03-01T12:13:58;6.60;99.90
33715;DHT22;20043;50.998;4.754;2023-03-01T12:28:36;6.60;99.90
33715;DHT22;20043;50.998;4.754;2023-03-01T12:50:14;6.90;99.90
33715;DHT22;20043;50.998;4.754;2023-03-01T12:52:52;7.00;99.90
33715;DHT22;20043;50.998;4.754;2023-03-01T12:55:31;7.00;99.90
33715;DHT22;20043;50.998;4.754;2023-03-01T13:01:19;7.20;99.90
33715;DHT22;20043;50.998;4.754;2023-03-01T13:04:06;7.20;99.90
33715;DHT22;20043;50.998;4.754;2023-03-01T13:06:55;7.10;99.90
33715;DHT22;20043;50.998;4.754;2023-03-01T13:11:49;7.30;99.90
33715;DHT22;20043;50.998;4.754;2023-03-01T13:16:46;7.30;99.90
33715;DHT22;20043;50.998;4.754;2023-03-01T13:19:22;7.20;99.90
33715;DHT22;20043;50.998;4.754;2023-03-01T13:21:49;7.20;99.90
33715;DHT22;20043;50.998;4.754;2023-03-01T13:24:40;7.50;99.90
33715;DHT22;20043;50.998;4.754;2023-03-01T13:29:56;7.70;99.90
33715;DHT22;20043;50.998;4.754;2023-03-01T13:32:40;7.70;99.90
33715;DHT22;20043;50.998;4.754;2023-03-01T13:37:42;7.80;99.90
33715;DHT22;20043;50.998;4.754;2023-03-01T13:42:48;7.70;99.90
33715;DHT22;20043;50.998;4.754;2023-03-01T13:45:22;7.80;99.90
33715;DHT22;20043;50.998;4.754;2023-03-01T13:47:53;7.80;99.90
33715;DHT22;20043;50.998;4.754;2023-03-01T13:50:23;7.90;99.90
33715;DHT22;20043;50.998;4.754;2023-03-01T13:53:11;7.90;99.90
33715;DHT22;20043;50.998;4.754;2023-03-01T13:55:44;7.70;99.90
33715;DHT22;20043;50.998;4.754;2023-03-01T13:58:22;7.70;99.90
33715;DHT22;20043;50.998;4.754;2023-03-01T14:01:05;7.80;99.90
33715;DHT22;20043;50.998;4.754;2023-03-01T14:03:32;7.80;99.90
33715;DHT22;20043;50.998;4.754;2023-03-01T14:06:13;7.70;99.90
33715;DHT22;20043;50.998;4.754;2023-03-01T14:08:41;7.70;99.90
33715;DHT22;20043;50.998;4.754;2023-03-01T14:20:02;7.50;99.90
33715;DHT22;20043;50.998;4.754;2023-03-01T14:22:34;7.60;99.90
33715;DHT22;20043;50.998;4.754;2023-03-01T14:27:43;7.40;99.90
33715;DHT22;20043;50.998;4.754;2023-03-01T14:30:20;7.40;99.90
33715;DHT22;20043;50.998;4.754;2023-03-01T14:32:58;7.60;99.90
33715;DHT22;20043;50.998;4.754;2023-03-01T14:35:29;7.70;99.90
33715;DHT22;20043;50.998;4.754;2023-03-01T14:37:55;7.80;99.90
33715;DHT22;20043;50.998;4.754;2023-03-01T14:40:36;7.80;99.90
33715;DHT22;20043;50.998;4.754;2023-03-01T14:43:09;7.60;99.90
33715;DHT22;20043;50.998;4.754;2023-03-01T14:45:36;7.80;99.90
33715;DHT22;20043;50.998;4.754;2023-03-01T14:48:03;7.80;99.70
33715;DHT22;20043;50.998;4.754;2023-03-01T14:50:31;7.80;99.60
33715;DHT22;20043;50.998;4.754;2023-03-01T14:53:03;7.90;99.90
33715;DHT22;20043;50.998;4.754;2023-03-01T14:55:38;7.70;99.80
33715;DHT22;20043;50.998;4.754;2023-03-01T14:58:11;7.70;99.90
33715;DHT22;20043;50.998;4.754;2023-03-01T15:00:37;7.90;99.90
33715;DHT22;20043;50.998;4.754;2023-03-01T15:03:14;8.00;99.90
33715;DHT22;20043;50.998;4.754;2023-03-01T15:05:43;7.90;99.90
33715;DHT22;20043;50.998;4.754;2023-03-01T15:08:20;8.00;99.90
33715;DHT22;20043;50.998;4.754;2023-03-01T15:11:04;8.10;99.90
33715;DHT22;20043;50.998;4.754;2023-03-01T15:13:32;7.80;99.90
33715;DHT22;20043;50.998;4.754;2023-03-01T15:16:13;7.90;99.90
33715;DHT22;20043;50.998;4.754;2023-03-01T15:18:57;7.80;99.50
33715;DHT22;20043;50.998;4.754;2023-03-01T15:21:35;7.80;99.60
33715;DHT22;20043;50.998;4.754;2023-03-01T15:26:56;8.20;99.90
33715;DHT22;20043;50.998;4.754;2023-03-01T15:29:28;8.20;99.80
33715;DHT22;20043;50.998;4.754;2023-03-01T15:32:20;7.90;99.30
33715;DHT22;20043;50.998;4.754;2023-03-01T15:34:48;7.90;99.90
33715;DHT22;20043;50.998;4.754;2023-03-01T15:37:38;8.00;99.90
33715;DHT22;20043;50.998;4.754;2023-03-01T15:40:27;8.00;99.50
33715;DHT22;20043;50.998;4.754;2023-03-01T15:42:59;7.80;99.90
33715;DHT22;20043;50.998;4.754;2023-03-01T15:45:27;7.70;99.90
33715;DHT22;20043;50.998;4.754;2023-03-01T15:47:55;7.70;99.90
33715;DHT22;20043;50.998;4.754;2023-03-01T15:50:26;7.70;99.90
33715;DHT22;20043;50.998;4.754;2023-03-01T15:52:53;7.80;99.90
33715;DHT22;20043;50.998;4.754;2023-03-01T15:55:21;7.80;99.90
33715;DHT22;20043;50.998;4.754;2023-03-01T15:57:48;7.60;99.90
33715;DHT22;20043;50.998;4.754;2023-03-01T16:00:15;7.60;99.90
33715;DHT22;20043;50.998;4.754;2023-03-01T16:02:43;7.70;99.90
33715;DHT22;20043;50.998;4.754;2023-03-01T16:05:22;7.60;99.90
33715;DHT22;20043;50.998;4.754;2023-03-01T16:07:49;7.50;99.90
33715;DHT22;20043;50.998;4.754;2023-03-01T16:10:15;7.50;99.90
33715;DHT22;20043;50.998;4.754;2023-03-01T16:12:41;7.50;99.90
33715;DHT22;20043;50.998;4.754;2023-03-01T16:15:25;7.40;99.90
33715;DHT22;20043;50.998;4.754;2023-03-01T16:17:52;7.30;99.90
33715;DHT22;20043;50.998;4.754;2023-03-01T16:20:19;7.20;99.90
33715;DHT22;20043;50.998;4.754;2023-03-01T16:22:45;7.10;99.90
33715;DHT22;20043;50.998;4.754;2023-03-01T16:25:12;7.30;99.90
33715;DHT22;20043;50.998;4.754;2023-03-01T16:27:41;7.30;99.90
33715;DHT22;20043;50.998;4.754;2023-03-01T16:30:07;7.20;99.90
33715;DHT22;20043;50.998;4.754;2023-03-01T16:32:38;7.30;99.90
33715;DHT22;20043;50.998;4.754;2023-03-01T16:35:04;7.20;99.90
33715;DHT22;20043;50.998;4.754;2023-03-01T16:37:32;7.20;99.90
33715;DHT22;20043;50.998;4.754;2023-03-01T16:39:58;7.00;99.90
33715;DHT22;20043;50.998;4.754;2023-03-01T16:42:23;7.00;99.90
33715;DHT22;20043;50.998;4.754;2023-03-01T16:44:54;7.00;99.90
33715;DHT22;20043;50.998;4.754;2023-03-01T16:47:20;6.90;99.90
33715;DHT22;20043;50.998;4.754;2023-03-01T16:49:46;7.10;99.90
33715;DHT22;20043;50.998;4.754;2023-03-01T16:52:11;7.00;99.90
33715;DHT22;20043;50.998;4.754;2023-03-01T16:54:37;6.90;99.90
33715;DHT22;20043;50.998;4.754;2023-03-01T16:57:03;6.80;99.90
33715;DHT22;20043;50.998;4.754;2023-03-01T16:59:29;6.90;99.90
33715;DHT22;20043;50.998;4.754;2023-03-01T17:01:55;6.90;99.90
33715;DHT22;20043;50.998;4.754;2023-03-01T17:04:20;6.80;99.90
33715;DHT22;20043;50.998;4.754;2023-03-01T17:06:46;6.60;99.90
33715;DHT22;20043;50.998;4.754;2023-03-01T17:09:13;6.70;99.90
33715;DHT22;20043;50.998;4.754;2023-03-01T17:11:40;6.60;99.90
33715;DHT22;20043;50.998;4.754;2023-03-01T17:14:06;6.50;99.90
33715;DHT22;20043;50.998;4.754;2023-03-01T17:16:32;6.40;99.90
33715;DHT22;20043;50.998;4.754;2023-03-01T17:18:57;6.40;99.90
33715;DHT22;20043;50.998;4.754;2023-03-01T17:21:23;6.40;99.90
33715;DHT22;20043;50.998;4.754;2023-03-01T17:23:49;6.40;99.90
33715;DHT22;20043;50.998;4.754;2023-03-01T17:26:16;6.30;99.90
33715;DHT22;20043;50.998;4.754;2023-03-01T17:28:42;6.30;99.90
33715;DHT22;20043;50.998;4.754;2023-03-01T17:31:08;6.20;99.90
33715;DHT22;20043;50.998;4.754;2023-03-01T17:33:34;6.30;99.90
33715;DHT22;20043;50.998;4.754;2023-03-01T17:36:00;6.40;99.90
33715;DHT22;20043;50.998;4.754;2023-03-01T17:38:26;6.50;99.90
33715;DHT22;20043;50.998;4.754;2023-03-01T17:40:52;6.20;99.90
33715;DHT22;20043;50.998;4.754;2023-03-01T17:43:18;6.20;99.90
33715;DHT22;20043;50.998;4.754;2023-03-01T17:45:44;6.00;99.90
33715;DHT22;20043;50.998;4.754;2023-03-01T17:48:14;6.00;99.90
33715;DHT22;20043;50.998;4.754;2023-03-01T17:50:40;6.00;99.90
33715;DHT22;20043;50.998;4.754;2023-03-01T17:53:06;6.00;99.90
33715;DHT22;20043;50.998;4.754;2023-03-01T17:55:35;5.90;99.90